Time;durP1;ratioP1;P1;durP2;ratioP2;P2;SDS_P1;SDS_P2;PMS_P1;PMS_P2;Temp;Humidity;BMP_temperature;BMP_pressure;BME280_temperature;BME280_humidity;BME280_pressure;Samples;Min_cycle;Max_cycle;Signal;HPM_P1;HPM_P2
2022/08/11 00:00:36;;;;;;;6.80;3.78;;;;;;;21.36;58.23;102255.72;4921394;28;120793;-79
2022/08/11 00:03:08;;;;;;;5.17;3.40;;;;;;;21.28;57.89;102249.75;4907320;28;120088;-79
2022/08/11 00:05:44;;;;;;;5.90;3.60;;;;;;;21.27;57.75;102245.44;4908578;28;121411;-80
2022/08/11 00:08:36;;;;;;;8.10;4.15;;;;;;;21.31;58.26;102259.19;4905862;28;123183;-79
2022/08/11 00:11:05;;;;;;;5.57;3.75;;;;;;;21.27;58.56;102248.22;4912202;28;121276;-80
2022/08/11 00:13:34;;;;;;;6.65;4.07;;;;;;;21.28;58.32;102255.34;4926452;28;120099;-79
2022/08/11 00:16:00;;;;;;;7.45;4.53;;;;;;;21.30;58.78;102244.47;4910281;28;120106;-79
2022/08/11 00:18:27;;;;;;;7.00;4.00;;;;;;;21.29;58.69;102244.94;4910620;28;119700;-80
2022/08/11 00:20:57;;;;;;;6.18;3.97;;;;;;;21.29;58.31;102245.72;4911701;28;119891;-80
2022/08/11 00:23:25;;;;;;;6.30;4.00;;;;;;;21.24;57.98;102243.63;4907889;28;121193;-80
2022/08/11 00:25:51;;;;;;;5.55;3.83;;;;;;;21.18;58.09;102239.97;4907001;28;120276;-80
2022/08/11 00:28:31;;;;;;;8.57;4.18;;;;;;;21.19;58.44;102249.88;4910407;28;120435;-80
2022/08/11 00:30:58;;;;;;;6.47;4.10;;;;;;;21.16;58.82;102245.28;4909762;28;120289;-80
2022/08/11 00:33:32;;;;;;;6.33;4.10;;;;;;;21.15;58.81;102240.94;4912370;28;120076;-79
2022/08/11 00:36:00;;;;;;;7.75;4.22;;;;;;;21.13;58.75;102244.22;4925544;28;120801;-80
2022/08/11 00:38:31;;;;;;;7.47;4.53;;;;;;;21.11;59.00;102241.16;4909689;28;119998;-80
2022/08/11 00:41:05;;;;;;;7.88;4.00;;;;;;;21.12;58.61;102233.56;4909386;28;120496;-80
2022/08/11 00:43:55;;;;;;;5.80;3.92;;;;;;;21.11;58.24;102243.19;4924707;28;120248;-80
2022/08/11 00:46:24;;;;;;;8.27;4.30;;;;;;;21.07;58.67;102235.00;4925893;28;120791;-80
2022/08/11 00:49:05;;;;;;;6.07;4.10;;;;;;;21.03;58.28;102233.66;4924986;28;122585;-80
2022/08/11 00:51:40;;;;;;;5.55;4.20;;;;;;;21.02;58.59;102243.28;4923479;28;120430;-80
2022/08/11 00:54:27;;;;;;;5.38;4.13;;;;;;;20.99;59.02;102238.69;4911301;28;120420;-79
2022/08/11 00:57:16;;;;;;;8.57;4.07;;;;;;;20.95;58.70;102238.13;4911798;28;121593;-79
2022/08/11 01:00:00;;;;;;;5.20;4.10;;;;;;;20.93;58.98;102246.22;4924307;28;120090;-80
2022/08/11 01:02:44;;;;;;;6.22;4.38;;;;;;;20.90;58.59;102242.38;4924538;28;120551;-79
2022/08/11 01:05:42;;;;;;;8.32;4.30;;;;;;;20.87;58.86;102237.78;4923813;28;119990;-79
2022/08/11 01:08:36;;;;;;;6.18;4.22;;;;;;;20.84;58.79;102244.31;4916678;28;120003;-80
2022/08/11 01:11:33;;;;;;;4.93;4.30;;;;;;;20.83;58.89;102240.00;4909798;28;120234;-80
2022/08/11 01:14:33;;;;;;;5.82;4.00;;;;;;;20.79;58.57;102237.38;4923803;28;120187;-80
2022/08/11 01:17:24;;;;;;;7.97;4.33;;;;;;;20.75;58.89;102236.81;4908892;28;120165;-80
2022/08/11 01:20:25;;;;;;;6.17;4.00;;;;;;;20.74;59.08;102235.28;4923413;28;120295;-79
2022/08/11 01:23:03;;;;;;;6.60;4.30;;;;;;;20.75;58.89;102236.81;4925411;28;119678;-79
2022/08/11 01:26:01;;;;;;;6.82;4.03;;;;;;;20.73;59.19;102232.97;4890084;28;121641;-81
2022/08/11 01:28:29;;;;;;;6.25;4.28;;;;;;;20.70;58.91;102237.50;4907779;28;120495;-79
2022/08/11 01:31:23;;;;;;;5.70;4.13;;;;;;;20.69;58.77;102233.19;4907022;28;120095;-80
2022/08/11 01:34:07;;;;;;;6.28;3.78;;;;;;;20.66;58.79;102234.16;4906274;28;123148;-80
2022/08/11 01:36:47;;;;;;;6.18;4.30;;;;;;;20.63;59.17;102223.97;4890064;28;122467;-80
2022/08/11 01:39:40;;;;;;;8.55;4.15;;;;;;;20.62;59.08;102225.22;4922451;28;120043;-80
2022/08/11 01:45:22;;;;;;;6.20;4.03;;;;;;;20.56;59.19;102229.94;4911190;28;121443;-80
2022/08/11 01:48:21;;;;;;;6.13;4.17;;;;;;;20.55;59.58;102220.03;4909774;28;120828;-80
2022/08/11 01:50:55;;;;;;;5.40;3.92;;;;;;;20.52;59.08;102227.34;4906374;28;120484;-80
2022/08/11 01:53:41;;;;;;;5.38;4.13;;;;;;;20.47;58.86;102213.31;4920507;28;120255;-80
2022/08/11 01:56:33;;;;;;;6.03;4.10;;;;;;;20.48;59.18;102226.00;4886776;28;121003;-79
2022/08/11 01:59:14;;;;;;;5.38;4.10;;;;;;;20.45;59.20;102224.19;4907202;28;122144;-80
2022/08/11 02:03:07;;;;;;;7.27;4.53;;;;;;;20.42;59.67;102225.16;4908615;28;121644;-79
2022/08/11 02:05:42;;;;;;;5.30;4.60;;;;;;;20.39;59.60;102221.28;4918095;28;120140;-80
2022/08/11 02:08:31;;;;;;;6.40;4.17;;;;;;;20.37;59.57;102223.03;4921958;28;120103;-80
2022/08/11 02:11:30;;;;;;;7.23;4.07;;;;;;;20.30;59.56;102204.66;4927988;28;120169;-80
2022/08/11 02:14:10;;;;;;;6.55;4.35;;;;;;;20.34;59.55;102213.59;4906559;28;120142;-80
2022/08/11 02:16:45;;;;;;;7.10;3.95;;;;;;;20.33;59.77;102214.84;4909486;28;120226;-80
2022/08/11 02:25:31;;;;;;;5.70;4.03;;;;;;;20.27;59.24;102218.78;4920394;28;119937;-80
2022/08/11 02:28:22;;;;;;;7.07;4.05;;;;;;;20.22;59.28;102215.44;4909751;28;119947;-80
2022/08/11 02:33:59;;;;;;;7.30;4.55;;;;;;;20.18;59.73;102226.00;4922017;28;120548;-79
2022/08/11 02:36:44;;;;;;;8.43;4.70;;;;;;;20.17;59.73;102230.03;4910433;28;121756;-78
2022/08/11 02:39:13;;;;;;;6.70;4.53;;;;;;;20.13;59.77;102221.09;4907309;28;120658;-80
2022/08/11 02:42:21;;;;;;;6.53;4.35;;;;;;;20.14;59.90;102219.09;4908463;28;121652;-80
2022/08/11 02:44:50;;;;;;;5.93;4.30;;;;;;;20.12;59.61;102221.59;4904689;28;119997;-79
2022/08/11 02:47:41;;;;;;;5.95;4.30;;;;;;;20.10;59.53;102227.63;4908271;28;120497;-80
2022/08/11 02:50:36;;;;;;;6.90;4.50;;;;;;;20.07;59.55;102234.16;4922050;28;119966;-79
2022/08/11 02:53:15;;;;;;;7.90;4.68;;;;;;;20.06;59.47;102232.63;4905952;28;120188;-80
2022/08/11 02:55:50;;;;;;;6.68;4.47;;;;;;;20.05;59.46;102228.28;4921484;28;120063;-80
2022/08/11 02:58:34;;;;;;;7.07;4.30;;;;;;;20.02;59.54;102232.03;4907578;28;120055;-80
2022/08/11 03:01:12;;;;;;;6.47;4.78;;;;;;;19.94;59.64;102219.75;4922300;28;122087;-80
2022/08/11 03:04:04;;;;;;;7.07;4.77;;;;;;;19.93;59.82;102221.75;4905552;28;120671;-80
2022/08/11 03:06:40;;;;;;;7.22;4.93;;;;;;;19.95;60.21;102221.28;4904330;28;120361;-80
2022/08/11 03:09:39;;;;;;;6.50;5.00;;;;;;;19.92;60.31;102213.88;4905306;28;120277;-80
2022/08/11 03:18:05;;;;;;;6.85;5.03;;;;;;;19.87;60.13;102220.91;4922224;28;120694;-79
2022/08/11 03:20:52;;;;;;;8.13;5.38;;;;;;;19.87;60.12;102225.66;4919725;28;120706;-80
2022/08/11 03:23:32;;;;;;;6.82;5.10;;;;;;;19.80;59.74;102215.69;4905054;28;120900;-80
2022/08/11 03:26:05;;;;;;;6.43;4.90;;;;;;;19.81;59.95;102222.78;4926592;28;120339;-80
2022/08/11 03:28:49;;;;;;;8.23;5.17;;;;;;;19.79;59.90;102228.06;4922310;28;123110;-79
2022/08/11 03:31:43;;;;;;;6.60;5.10;;;;;;;19.78;59.62;102228.56;4906484;28;120171;-79
2022/08/11 03:34:16;;;;;;;6.38;5.00;;;;;;;19.75;59.84;102223.94;4905651;28;120298;-80
2022/08/11 03:37:03;;;;;;;7.70;5.13;;;;;;;19.74;59.85;102222.41;4905889;28;121916;-80
2022/08/11 03:39:32;;;;;;;8.35;5.18;;;;;;;19.73;59.96;102218.09;4907554;28;119607;-80
2022/08/11 03:42:23;;;;;;;7.35;5.28;;;;;;;19.70;60.45;102219.03;4923440;28;122131;-80
2022/08/11 03:45:46;;;;;;;10.57;5.82;;;;;;;19.72;60.43;102220.09;4924358;28;120339;-80
2022/08/11 03:48:20;;;;;;;8.00;5.40;;;;;;;19.69;60.29;102214.72;4895855;28;120872;-80
2022/08/11 03:50:54;;;;;;;8.37;6.07;;;;;;;19.72;60.80;102216.53;4905238;28;120563;-78
2022/08/11 03:54:08;;;;;;;7.82;5.45;;;;;;;19.69;60.24;102206.38;4908392;28;120663;-80
2022/08/11 03:57:14;;;;;;;7.80;5.45;;;;;;;19.70;60.33;102211.47;4870213;28;121879;-80
2022/08/11 04:00:17;;;;;;;7.60;5.53;;;;;;;19.71;59.90;102217.78;4838935;28;121190;-79
2022/08/11 04:03:09;;;;;;;8.00;5.45;;;;;;;19.70;59.63;102210.69;4905073;28;120169;-80
2022/08/11 04:05:44;;;;;;;8.73;5.45;;;;;;;19.66;60.05;102210.09;4903875;28;121649;-80
2022/08/11 04:08:28;;;;;;;8.70;5.60;;;;;;;19.67;59.95;102214.44;4903989;28;121838;-80
2022/08/11 04:11:00;;;;;;;7.88;5.65;;;;;;;19.67;59.48;102208.84;4903880;28;120753;-80
2022/08/11 04:17:07;;;;;;;9.77;6.40;;;;;;;19.70;59.91;102216.25;4903986;28;120889;-80
2022/08/11 04:19:54;;;;;;;12.00;6.20;;;;;;;19.72;60.22;102222.13;4906484;28;120978;-79
2022/08/11 04:22:20;;;;;;;9.57;6.23;;;;;;;19.74;60.15;102223.16;4904485;28;121544;-80
2022/08/11 04:24:52;;;;;;;10.03;6.27;;;;;;;19.77;60.40;102218.66;4908302;28;120635;-79
2022/08/11 04:27:36;;;;;;;9.07;5.75;;;;;;;19.82;59.60;102212.41;4909227;28;120686;-80
2022/08/11 04:30:29;;;;;;;8.38;6.25;;;;;;;19.84;59.78;102215.50;4907394;28;121341;-80
2022/08/11 04:33:40;;;;;;;6.63;5.55;;;;;;;19.86;59.77;102213.00;4910358;28;120182;-80
2022/08/11 04:39:54;;;;;;;9.07;5.50;;;;;;;19.89;60.00;102214.84;4929541;28;120596;-80
2022/08/11 04:46:04;;;;;;;8.23;5.70;;;;;;;19.92;59.42;102211.09;4909840;28;120360;-80
2022/08/11 05:07:08;;;;;;;11.90;7.40;;;;;;;20.46;60.40;102206.22;4912370;28;120910;-80
2022/08/11 05:10:18;;;;;;;10.85;6.75;;;;;;;20.56;60.33;102206.84;4909394;28;120944;-80
2022/08/11 05:35:54;;;;;;;9.52;7.20;;;;;;;21.36;61.93;102214.59;4909029;28;120498;-79
2022/08/11 05:57:55;;;;;;;14.13;7.30;;;;;;;22.20;62.75;102220.31;4926882;28;120579;-80
2022/08/11 06:00:23;;;;;;;12.32;6.63;;;;;;;22.31;63.17;102220.44;4907547;28;122685;-80
2022/08/11 06:03:02;;;;;;;11.05;6.43;;;;;;;22.44;62.97;102217.97;4922975;28;120807;-81
2022/08/11 06:05:37;;;;;;;7.07;5.10;;;;;;;22.56;62.58;102218.84;4908992;28;121227;-81
2022/08/11 06:08:07;;;;;;;9.03;5.13;;;;;;;22.64;62.60;102220.66;4905666;28;120166;-81
2022/08/11 06:10:36;;;;;;;11.82;5.65;;;;;;;22.76;62.70;102215.16;4908522;28;120765;-81
2022/08/11 06:13:04;;;;;;;8.13;5.22;;;;;;;22.86;62.46;102219.31;4907647;28;120631;-81
2022/08/11 06:15:33;;;;;;;7.43;4.60;;;;;;;23.01;62.10;102213.56;4908289;28;122211;-80
2022/08/11 06:18:01;;;;;;;7.75;4.90;;;;;;;23.09;61.76;102229.38;4911323;28;122559;-80
2022/08/11 06:20:36;;;;;;;6.53;4.68;;;;;;;23.17;61.98;102222.00;4906878;28;120378;-80
2022/08/11 06:23:04;;;;;;;8.17;4.77;;;;;;;23.24;61.51;102221.56;4908741;28;122424;-80
2022/08/11 06:26:10;;;;;;;7.55;4.15;;;;;;;23.33;61.62;102205.81;4921567;28;120287;-80
2022/08/11 06:28:37;;;;;;;6.22;3.85;;;;;;;23.40;61.70;102208.09;4913198;28;120984;-80
2022/08/11 06:31:12;;;;;;;7.27;3.90;;;;;;;23.48;61.55;102211.97;4922757;28;120754;-80
2022/08/11 06:33:49;;;;;;;6.30;3.90;;;;;;;23.51;61.37;102199.75;4909512;28;120629;-80
2022/08/11 06:36:26;;;;;;;5.60;3.60;;;;;;;23.61;60.44;102203.13;4921356;28;123604;-80
2022/08/11 06:39:20;;;;;;;7.78;3.67;;;;;;;23.68;60.42;102203.41;4907455;28;121901;-80
2022/08/11 06:42:08;;;;;;;5.40;3.72;;;;;;;23.73;60.39;102211.06;4912086;28;122314;-80
2022/08/11 06:45:10;;;;;;;5.68;3.60;;;;;;;23.79;60.62;102200.63;4919769;28;122084;-80
2022/08/11 06:47:44;;;;;;;6.35;3.53;;;;;;;23.83;59.76;102209.53;4922779;28;121275;-80
2022/08/11 06:52:58;;;;;;;6.87;3.60;;;;;;;23.93;60.12;102212.88;4906076;28;121608;-80
2022/08/11 07:01:14;;;;;;;6.47;3.30;;;;;;;23.97;58.75;102198.59;4905252;28;122996;-79
2022/08/11 07:03:45;;;;;;;6.13;3.60;;;;;;;24.06;58.93;102203.94;4904978;28;121736;-80
2022/08/11 07:06:13;;;;;;;6.37;3.13;;;;;;;24.20;58.60;102211.34;4909178;28;121977;-80
2022/08/11 07:17:40;;;;;;;15.30;4.10;;;;;;;24.52;56.76;102216.72;4903465;28;121971;-80
2022/08/11 07:31:36;;;;;;;9.00;3.17;;;;;;;24.86;55.07;102209.78;4903923;28;124171;-79
2022/08/11 07:34:19;;;;;;;5.65;2.80;;;;;;;24.90;55.84;102215.88;4904933;28;122330;-80
2022/08/11 07:36:52;;;;;;;8.52;3.20;;;;;;;24.91;54.17;102211.03;4897307;28;122560;-79
2022/08/11 07:39:22;;;;;;;9.90;3.65;;;;;;;24.96;54.97;102207.44;4917914;28;121812;-80
2022/08/11 07:41:50;;;;;;;5.95;2.60;;;;;;;25.04;54.22;102214.84;4906315;28;122393;-80
2022/08/11 07:44:16;;;;;;;5.55;2.75;;;;;;;25.09;55.28;102213.31;4899956;28;123023;-80
2022/08/11 07:52:29;;;;;;;7.18;3.10;;;;;;;25.34;53.36;102208.59;4913919;28;122789;-80
2022/08/11 07:54:58;;;;;;;5.15;2.88;;;;;;;25.51;53.18;102202.88;4903785;28;122686;-80
2022/08/11 08:19:30;;;;;;;7.18;2.72;;;;;;;28.43;45.68;102197.03;4906819;28;122160;-80
2022/08/11 08:22:26;;;;;;;4.07;2.10;;;;;;;28.59;44.27;102205.72;4909521;28;122696;-81
2022/08/11 08:24:55;;;;;;;3.55;2.00;;;;;;;28.63;43.84;102201.28;4886406;28;123482;-80
2022/08/11 08:27:24;;;;;;;9.90;2.92;;;;;;;28.67;43.65;102193.25;4900145;28;126611;-81
2022/08/11 08:32:39;;;;;;;4.20;2.22;;;;;;;28.93;43.61;102203.06;4919808;28;122560;-81
2022/08/11 08:35:06;;;;;;;5.37;2.30;;;;;;;29.03;43.16;102201.28;4920282;28;123099;-81
2022/08/11 08:37:32;;;;;;;4.25;2.00;;;;;;;29.14;42.69;102194.66;4919693;28;123661;-81
2022/08/11 08:39:58;;;;;;;4.45;2.08;;;;;;;29.19;42.24;102203.03;4909433;28;124981;-81
2022/08/11 08:42:34;;;;;;;4.03;1.80;;;;;;;29.22;40.10;102201.16;4904672;28;122631;-81
2022/08/11 08:45:06;;;;;;;4.70;2.35;;;;;;;29.25;41.77;102194.41;4905617;28;122501;-81
2022/08/11 08:47:44;;;;;;;2.63;1.60;;;;;;;29.30;41.00;102199.94;4919510;28;123058;-81
2022/08/11 08:50:18;;;;;;;5.75;2.10;;;;;;;29.45;41.58;102201.47;4904386;28;122561;-81
2022/08/11 08:52:59;;;;;;;4.40;1.98;;;;;;;29.58;39.69;102202.19;4889000;28;123439;-80
2022/08/11 08:55:27;;;;;;;7.27;2.17;;;;;;;29.67;39.59;102197.38;4903641;28;124643;-81
2022/08/11 08:57:59;;;;;;;3.70;1.67;;;;;;;29.65;38.84;102195.09;4920767;28;122894;-81
2022/08/11 09:00:38;;;;;;;3.25;1.65;;;;;;;29.62;37.58;102190.53;4904897;28;123122;-81
2022/08/11 09:03:04;;;;;;;4.43;1.90;;;;;;;29.64;40.38;102191.50;4916574;28;125150;-80
2022/08/11 09:05:30;;;;;;;4.27;1.80;;;;;;;29.66;37.32;102184.53;4898791;28;122608;-81
2022/08/11 09:07:57;;;;;;;5.27;1.67;;;;;;;29.61;37.63;102192.59;4899477;28;122919;-80
2022/08/11 09:10:24;;;;;;;3.45;1.67;;;;;;;29.60;36.75;102190.34;4901062;28;122646;-80
2022/08/11 09:13:08;;;;;;;3.00;1.77;;;;;;;29.62;38.75;102184.88;4902155;28;122397;-80
2022/08/11 09:15:36;;;;;;;3.13;1.80;;;;;;;29.65;39.64;102180.97;4902543;28;122398;-81
2022/08/11 09:18:05;;;;;;;4.20;1.70;;;;;;;29.74;38.91;102176.88;4902264;28;122603;-80
2022/08/11 09:20:37;;;;;;;3.13;1.70;;;;;;;29.81;39.57;102182.63;4902862;28;124539;-81
2022/08/11 09:28:42;;;;;;;3.45;1.83;;;;;;;30.22;39.62;102176.19;4901031;28;122418;-81
2022/08/11 09:31:10;;;;;;;3.37;1.73;;;;;;;30.29;37.69;102171.19;4913265;28;124205;-80
2022/08/11 09:33:37;;;;;;;9.60;3.50;;;;;;;30.23;37.85;102172.06;4887331;28;122836;-81
2022/08/11 09:40:27;;;;;;;5.70;1.93;;;;;;;30.21;38.31;102173.94;4869561;28;125234;-81
2022/08/11 09:41:39;;;;;;;15.63;2.97;;;;;;;30.28;38.22;102172.47;4885674;28;122513;-81
2022/08/11 09:44:48;;;;;;;3.67;1.53;;;;;;;30.27;36.77;102174.53;4890073;28;122887;-81
2022/08/11 09:47:25;;;;;;;3.78;1.83;;;;;;;30.14;36.65;102164.06;4899185;28;123146;-81
2022/08/11 09:50:01;;;;;;;2.87;1.60;;;;;;;30.04;38.58;102167.94;4906975;28;122610;-81
2022/08/11 09:52:29;;;;;;;3.93;1.80;;;;;;;30.05;38.96;102164.56;4886491;28;123022;-81
2022/08/11 09:54:55;;;;;;;4.90;1.70;;;;;;;30.05;38.24;102161.75;4901177;28;122063;-81
2022/08/11 10:00:09;;;;;;;2.47;1.40;;;;;;;30.11;38.79;102162.34;4870572;28;123262;-81
2022/08/11 10:02:42;;;;;;;4.30;1.90;;;;;;;30.17;38.50;102162.97;4915747;28;125709;-80
2022/08/11 10:08:29;;;;;;;4.28;1.80;;;;;;;29.97;37.51;102160.13;4897510;28;123377;-81
2022/08/11 10:11:01;;;;;;;3.00;1.80;;;;;;;29.90;38.49;102153.84;4884766;28;124890;-81
2022/08/11 10:15:32;;;;;;;4.38;1.80;;;;;;;29.91;38.61;102152.53;4906450;28;122934;-81
2022/08/11 10:16:40;;;;;;;3.78;2.10;;;;;;;29.86;38.18;102153.44;4900086;28;122552;-79
2022/08/11 10:19:08;;;;;;;4.53;1.90;;;;;;;29.83;39.80;102154.56;4900842;28;122527;-80
2022/08/11 10:26:49;;;;;;;4.43;1.92;;;;;;;29.91;39.84;102163.84;4916943;28;122927;-81
2022/08/11 10:27:42;;;;;;;6.28;2.30;;;;;;;29.74;40.90;102149.38;4885782;28;123695;-80
2022/08/11 10:35:42;;;;;;;4.35;2.10;;;;;;;29.60;42.13;102150.75;4914982;28;124063;-80
2022/08/11 10:38:08;;;;;;;4.72;2.00;;;;;;;29.57;42.19;102146.16;4920254;28;122793;-82
2022/08/11 10:40:38;;;;;;;2.88;2.00;;;;;;;29.52;42.33;102142.16;4901194;28;122848;-82
2022/08/11 10:43:14;;;;;;;4.97;2.20;;;;;;;29.51;42.21;102134.25;4900517;28;122318;-82
2022/08/11 10:48:36;;;;;;;2.92;2.10;;;;;;;29.51;42.53;102128.59;4885040;28;124927;-81
2022/08/11 10:51:12;;;;;;;4.40;2.20;;;;;;;29.52;42.52;102133.69;4901664;28;122647;-81
2022/08/11 10:59:25;;;;;;;2.90;2.20;;;;;;;29.48;41.89;102127.63;4905340;28;122846;-80
2022/08/11 11:01:52;;;;;;;5.20;2.23;;;;;;;29.49;41.95;102131.22;4893685;28;123698;-80
2022/08/11 11:04:32;;;;;;;2.78;2.10;;;;;;;29.58;42.39;102123.03;4899548;28;122268;-81
2022/08/11 11:07:15;;;;;;;2.63;1.90;;;;;;;29.64;42.27;102122.88;4883279;28;122481;-81
2022/08/11 11:09:49;;;;;;;3.08;2.08;;;;;;;29.70;41.78;102129.16;4896570;28;122503;-81
2022/08/11 11:18:03;;;;;;;4.50;2.10;;;;;;;29.86;41.72;102125.16;4900948;28;122701;-81
2022/08/11 11:20:38;;;;;;;4.70;2.05;;;;;;;29.85;40.51;102128.53;4899635;28;122867;-83
2022/08/11 11:23:27;;;;;;;3.10;2.30;;;;;;;29.82;40.96;102121.94;4903225;28;123253;-81
2022/08/11 11:26:30;;;;;;;3.75;2.00;;;;;;;29.77;41.23;102116.38;4897335;28;122823;-81
2022/08/11 11:29:23;;;;;;;4.13;2.33;;;;;;;29.76;40.79;102123.34;4900628;28;122893;-81
2022/08/11 11:32:14;;;;;;;3.92;2.20;;;;;;;29.76;41.68;102124.13;4898934;28;123854;-81
2022/08/11 11:35:07;;;;;;;4.20;2.10;;;;;;;29.74;41.03;102123.16;4884360;28;122659;-82
2022/08/11 11:37:35;;;;;;;5.45;2.30;;;;;;;29.77;40.85;102119.97;4915464;28;125365;-82
2022/08/11 11:40:15;;;;;;;3.10;2.20;;;;;;;29.80;41.42;102118.88;4900513;28;122996;-81
2022/08/11 11:42:44;;;;;;;5.60;2.45;;;;;;;29.90;40.67;102130.47;4883781;28;122202;-81
2022/08/11 11:45:15;;;;;;;3.85;2.20;;;;;;;29.88;40.19;102116.88;4897801;28;123415;-80
2022/08/11 11:47:44;;;;;;;2.88;2.30;;;;;;;29.86;40.55;102122.34;4917606;28;123510;-80
2022/08/11 11:50:11;;;;;;;4.20;2.27;;;;;;;29.87;40.76;102123.84;4897592;28;124390;-80
2022/08/11 11:52:39;;;;;;;3.28;2.20;;;;;;;29.82;41.03;102116.28;4866592;28;126840;-81
2022/08/11 11:55:05;;;;;;;4.47;2.30;;;;;;;29.87;41.09;102112.53;4897786;28;122979;-82
2022/08/11 12:03:06;;;;;;;5.13;2.50;;;;;;;29.86;40.86;102116.69;4902767;28;122922;-81
2022/08/11 12:05:36;;;;;;;3.58;2.20;;;;;;;29.85;41.10;102120.81;4914962;28;123902;-82
2022/08/11 12:08:13;;;;;;;3.85;2.30;;;;;;;29.90;40.46;102119.16;4902469;28;122935;-81
2022/08/11 12:10:43;;;;;;;5.93;2.30;;;;;;;29.91;40.18;102112.94;4919658;28;123926;-81
2022/08/11 12:15:55;;;;;;;3.13;2.20;;;;;;;30.00;39.74;102119.41;4903209;28;123716;-81
2022/08/11 12:18:21;;;;;;;5.05;2.20;;;;;;;30.02;40.04;102120.38;4901951;28;123973;-81
2022/08/11 12:20:47;;;;;;;4.57;2.20;;;;;;;30.05;39.39;102116.47;4896426;28;123141;-81
2022/08/11 12:28:44;;;;;;;3.20;2.07;;;;;;;29.98;38.38;102088.09;4912458;28;123728;-81
2022/08/11 12:31:11;;;;;;;3.80;2.10;;;;;;;30.04;38.28;102100.78;4917922;28;124315;-81
2022/08/11 12:33:39;;;;;;;4.72;2.05;;;;;;;30.08;38.14;102100.47;4905144;28;123172;-81
2022/08/11 12:36:08;;;;;;;4.53;2.08;;;;;;;30.09;38.59;102102.72;4905710;28;122441;-80
2022/08/11 12:38:35;;;;;;;3.83;2.20;;;;;;;30.15;39.06;102099.75;4906167;28;122150;-81
2022/08/11 12:46:34;;;;;;;3.60;2.00;;;;;;;30.23;38.51;102092.06;4905259;28;122469;-81
2022/08/11 12:52:07;;;;;;;4.38;2.05;;;;;;;30.23;37.65;102092.06;4904859;28;122497;-81
2022/08/11 12:54:53;;;;;;;2.70;1.90;;;;;;;30.22;37.85;102087.72;4908902;28;123155;-81
2022/08/11 13:05:55;;;;;;;3.15;2.10;;;;;;;30.16;37.86;102072.97;4906057;28;122929;-81
2022/08/11 13:08:23;;;;;;;3.50;1.90;;;;;;;30.17;37.60;102078.06;4921245;28;122625;-81
2022/08/11 13:13:43;;;;;;;2.85;2.20;;;;;;;30.14;38.43;102061.44;4904581;28;122319;-81
2022/08/11 13:19:30;;;;;;;3.72;2.03;;;;;;;30.25;37.15;102067.53;4906546;28;123430;-82
2022/08/11 13:21:57;;;;;;;3.87;2.27;;;;;;;30.25;36.41;102058.28;4902618;28;124396;-81
2022/08/11 13:24:27;;;;;;;4.15;2.13;;;;;;;30.31;36.64;102053.25;4903018;28;127219;-81
2022/08/11 13:26:53;;;;;;;3.42;2.00;;;;;;;30.35;37.15;102058.56;4902057;28;123027;-82
2022/08/11 13:29:22;;;;;;;4.75;2.42;;;;;;;30.40;36.41;102055.56;4902308;28;122484;-81
2022/08/11 13:31:49;;;;;;;2.90;2.13;;;;;;;30.41;36.75;102056.31;4902186;28;126341;-81
2022/08/11 13:34:16;;;;;;;5.13;2.20;;;;;;;30.43;36.44;102048.78;4902590;28;122809;-81
2022/08/11 13:36:44;;;;;;;4.60;2.10;;;;;;;30.49;36.16;102040.88;4885669;28;122879;-81
2022/08/11 13:39:11;;;;;;;3.38;2.15;;;;;;;30.53;35.58;102040.53;4884828;28;125317;-81
2022/08/11 13:41:40;;;;;;;5.60;2.00;;;;;;;30.62;35.93;102036.44;4889477;28;122823;-81
2022/08/11 13:44:08;;;;;;;3.72;2.38;;;;;;;30.67;36.09;102038.31;4900686;28;122684;-81
2022/08/11 13:46:35;;;;;;;3.92;2.08;;;;;;;30.69;35.87;102035.69;4884567;28;122563;-80
2022/08/11 13:49:02;;;;;;;5.78;2.30;;;;;;;30.72;35.61;102037.41;4902312;28;122853;-81
2022/08/11 13:51:34;;;;;;;4.85;2.50;;;;;;;30.71;35.05;102022.47;4903358;28;123258;-81
2022/08/11 13:54:24;;;;;;;5.30;1.92;;;;;;;30.72;35.35;102035.31;4905223;28;122587;-81
2022/08/11 13:56:54;;;;;;;2.88;2.10;;;;;;;30.74;35.48;102015.69;4901604;28;125502;-82
2022/08/11 13:59:24;;;;;;;4.90;2.20;;;;;;;30.84;34.87;102027.25;4903068;28;123817;-81
2022/08/11 14:01:56;;;;;;;7.82;2.30;;;;;;;30.87;34.03;102017.63;4919243;28;122226;-81
2022/08/11 14:05:00;;;;;;;3.37;1.90;;;;;;;30.91;34.49;102018.00;4922825;28;122822;-81
2022/08/11 14:07:36;;;;;;;4.10;2.17;;;;;;;30.93;35.37;102023.84;4918305;28;122833;-81
2022/08/11 14:10:05;;;;;;;4.30;2.10;;;;;;;30.94;34.18;102008.38;4903966;28;122443;-81
2022/08/11 14:15:26;;;;;;;2.73;2.10;;;;;;;30.98;33.42;102020.09;4904601;28;122633;-82
2022/08/11 14:18:00;;;;;;;3.92;1.98;;;;;;;30.94;33.48;102011.22;4919523;28;126303;-82
2022/08/11 14:22:05;;;;;;;4.90;2.10;;;;;;;30.93;33.53;101998.38;4904145;28;122523;-82
2022/08/11 14:23:15;;;;;;;4.68;1.92;;;;;;;30.89;33.20;102003.66;4885554;28;122217;-82
2022/08/11 14:26:22;;;;;;;3.67;2.00;;;;;;;30.89;33.34;102009.31;4900109;28;123298;-81
2022/08/11 14:28:33;;;;;;;3.72;2.13;;;;;;;30.85;33.04;102006.84;4902834;28;123926;-82
2022/08/11 14:31:01;;;;;;;4.43;2.03;;;;;;;30.78;32.33;102009.69;4868126;28;124078;-81
2022/08/11 14:33:29;;;;;;;3.83;2.13;;;;;;;30.77;33.38;102006.09;4899348;28;124753;-82
2022/08/11 14:36:27;;;;;;;4.10;1.90;;;;;;;30.85;32.97;102008.94;4887381;28;122841;-79
2022/08/11 14:38:53;;;;;;;4.00;1.80;;;;;;;30.84;32.45;102010.25;4915712;28;123545;-80
2022/08/11 14:47:04;;;;;;;5.47;2.08;;;;;;;30.96;33.24;102007.81;4900676;28;122538;-80
2022/08/11 14:50:02;;;;;;;6.82;2.00;;;;;;;30.93;32.30;102001.19;4870807;28;123247;-81
2022/08/11 14:52:31;;;;;;;3.53;2.10;;;;;;;30.91;32.10;102003.09;4878380;28;123419;-80
2022/08/11 14:57:42;;;;;;;3.60;1.80;;;;;;;30.95;32.73;102000.63;4914094;28;124591;-82
2022/08/11 15:00:14;;;;;;;7.35;1.90;;;;;;;30.96;31.30;101997.22;4899940;28;122949;-81
2022/08/11 15:05:26;;;;;;;2.63;1.80;;;;;;;30.93;31.12;101992.69;4900449;28;122626;-80
2022/08/11 15:08:14;;;;;;;2.90;1.50;;;;;;;30.88;30.88;101998.53;4898771;28;122599;-81
2022/08/11 15:10:40;;;;;;;4.35;1.75;;;;;;;30.81;31.01;101995.13;4899439;28;125074;-80
2022/08/11 15:13:06;;;;;;;2.80;1.60;;;;;;;30.75;31.84;101986.03;4919508;28;122367;-81
2022/08/11 15:18:19;;;;;;;4.38;1.50;;;;;;;30.84;31.52;101981.94;4893197;28;123138;-80
2022/08/11 15:38:18;;;;;;;3.17;1.70;;;;;;;30.78;31.45;101972.84;4890789;28;122869;-81
2022/08/11 15:46:41;;;;;;;2.00;1.60;;;;;;;30.82;32.64;101965.50;4920088;28;123638;-81
2022/08/11 15:49:41;;;;;;;3.20;1.50;;;;;;;30.81;30.91;101960.41;4922550;28;122368;-80
2022/08/11 15:52:18;;;;;;;3.05;1.70;;;;;;;30.72;30.66;101955.25;4908013;28;123051;-81
2022/08/11 15:54:45;;;;;;;3.10;1.75;;;;;;;30.73;30.59;101956.78;4905289;28;123808;-81
2022/08/11 16:04:10;;;;;;;2.28;1.50;;;;;;;30.71;31.24;101953.75;4907156;28;122398;-81
2022/08/11 16:05:36;;;;;;;3.88;1.70;;;;;;;30.68;30.60;101952.03;4906799;28;122533;-81
2022/08/11 16:08:03;;;;;;;2.53;1.50;;;;;;;30.69;31.32;101953.56;4905806;28;125639;-82
2022/08/11 16:10:30;;;;;;;2.42;1.50;;;;;;;30.60;30.61;101945.59;4905634;28;122220;-82
2022/08/11 16:18:24;;;;;;;4.27;1.60;;;;;;;30.51;31.15;101944.03;4905111;28;122566;-85
2022/08/11 16:20:54;;;;;;;2.35;1.70;;;;;;;30.51;31.25;101946.88;4921488;28;122499;-83
2022/08/11 16:23:25;;;;;;;3.33;1.67;;;;;;;30.57;31.44;101949.56;4888459;28;126189;-82
2022/08/11 16:25:53;;;;;;;3.45;1.88;;;;;;;30.59;32.56;101946.91;4907733;28;122155;-82
2022/08/11 16:28:21;;;;;;;4.80;1.90;;;;;;;30.61;32.72;101938.63;4887025;28;124130;-81
2022/08/11 16:30:56;;;;;;;3.28;1.50;;;;;;;30.60;33.18;101942.75;4921152;28;122125;-81
2022/08/11 16:33:24;;;;;;;2.80;1.70;;;;;;;30.50;33.04;101928.38;4906114;28;125211;-81
2022/08/11 16:38:38;;;;;;;3.55;1.77;;;;;;;30.55;32.97;101933.88;4921960;28;122549;-80